Time;durP1;ratioP1;P1;durP2;ratioP2;P2;SDS_P1;SDS_P2;PMS_P1;PMS_P2;Temp;Humidity;BMP_temperature;BMP_pressure;BME280_temperature;BME280_humidity;BME280_pressure;Samples;Min_cycle;Max_cycle;Signal;HPM_P1;HPM_P2
2021/12/07 00:00:13;;;;;;;8.80;5.72;;;;;;;-1.66;100.00;95396.78;5001463;28;20489;-73
2021/12/07 00:02:39;;;;;;;12.88;5.65;;;;;;;-1.64;100.00;95395.56;5002196;28;20050;-69
2021/12/07 00:05:05;;;;;;;9.77;5.57;;;;;;;-1.65;100.00;95393.94;5000842;28;20132;-68
2021/12/07 00:07:31;;;;;;;9.57;5.00;;;;;;;-1.62;100.00;95384.88;5003594;28;20249;-70
2021/12/07 00:09:56;;;;;;;9.13;5.15;;;;;;;-1.62;100.00;95390.94;5005143;28;20057;-70
2021/12/07 00:12:22;;;;;;;10.90;5.65;;;;;;;-1.62;100.00;95387.50;5004859;28;20416;-69
2021/12/07 00:14:48;;;;;;;7.65;4.82;;;;;;;-1.65;100.00;95380.81;5006023;28;20037;-69
2021/12/07 00:17:14;;;;;;;10.70;5.30;;;;;;;-1.58;100.00;95379.03;5005070;28;20041;-69
2021/12/07 00:19:40;;;;;;;6.07;3.95;;;;;;;-1.59;100.00;95374.78;5006883;28;20113;-68
2021/12/07 00:22:08;;;;;;;8.00;4.22;;;;;;;-1.57;100.00;95380.63;5004876;28;20484;-69
2021/12/07 00:24:33;;;;;;;11.70;5.80;;;;;;;-1.57;100.00;95367.53;5006377;28;20393;-71
2021/12/07 00:26:59;;;;;;;9.18;4.97;;;;;;;-1.57;100.00;95370.16;5004474;28;20041;-69
2021/12/07 00:29:25;;;;;;;9.70;4.68;;;;;;;-1.56;100.00;95365.72;5005957;28;20029;-70
2021/12/07 00:32:06;;;;;;;8.10;3.90;;;;;;;-1.56;100.00;95352.59;5003936;28;20046;-68
2021/12/07 00:36:58;;;;;;;7.03;3.70;;;;;;;-1.54;100.00;95353.22;5004779;28;20076;-68
2021/12/07 00:39:25;;;;;;;6.68;4.07;;;;;;;-1.53;100.00;95350.38;5004654;28;20520;-69
2021/12/07 00:41:53;;;;;;;11.75;3.92;;;;;;;-1.50;100.00;95349.97;4987161;28;20039;-68
2021/12/07 00:44:20;;;;;;;6.97;3.83;;;;;;;-1.48;100.00;95347.16;5007738;28;20030;-69
2021/12/07 00:46:46;;;;;;;6.70;3.85;;;;;;;-1.47;100.00;95343.53;5005902;28;20428;-69
2021/12/07 00:49:13;;;;;;;6.60;3.45;;;;;;;-1.46;100.00;95350.41;4999350;28;20050;-69
2021/12/07 00:51:39;;;;;;;4.72;2.47;;;;;;;-1.45;100.00;95344.94;5005965;28;20473;-69
2021/12/07 00:54:05;;;;;;;6.35;3.25;;;;;;;-1.41;100.00;95354.03;4985648;28;20029;-72
2021/12/07 00:56:31;;;;;;;7.00;3.60;;;;;;;-1.38;100.00;95349.41;4984921;28;20634;-74
2021/12/07 00:58:57;;;;;;;8.13;3.92;;;;;;;-1.37;100.00;95351.81;5004742;28;20029;-70
2021/12/07 01:01:23;;;;;;;8.00;3.85;;;;;;;-1.33;100.00;95360.09;5002461;28;20053;-70
2021/12/07 01:03:49;;;;;;;7.20;4.13;;;;;;;-1.36;100.00;95355.25;5005692;28;20453;-69
2021/12/07 01:25:06;;;;;;;5.07;2.63;;;;;;;-1.06;100.00;95358.28;5002614;28;20259;-70
2021/12/07 01:27:32;;;;;;;4.05;1.90;;;;;;;-1.06;100.00;95359.09;4987441;28;20115;-71
2021/12/07 01:30:08;;;;;;;3.95;2.00;;;;;;;-0.98;100.00;95361.50;5001144;28;20041;-70
2021/12/07 01:40:48;;;;;;;3.42;1.50;;;;;;;-0.80;100.00;95381.09;4987089;28;20045;-74
2021/12/07 01:43:51;;;;;;;2.72;1.00;;;;;;;-0.78;100.00;95376.44;5004369;28;20033;-71
2021/12/07 01:51:44;;;;;;;1.25;0.65;;;;;;;-0.74;100.00;95393.41;4987043;28;19917;-74
2021/12/07 01:59:46;;;;;;;0.57;0.35;;;;;;;-0.53;100.00;95398.44;5002251;28;20049;-72
2021/12/07 02:02:13;;;;;;;0.85;0.35;;;;;;;-0.46;100.00;95398.44;5003478;28;20034;-72
2021/12/07 02:04:39;;;;;;;0.80;0.40;;;;;;;-0.49;100.00;95407.53;5002973;28;20033;-71
2021/12/07 02:07:07;;;;;;;0.45;0.25;;;;;;;-0.59;100.00;95401.91;5003345;28;20042;-71
2021/12/07 02:09:38;;;;;;;0.40;0.20;;;;;;;-0.51;100.00;95406.13;4971369;28;20463;-73
2021/12/07 02:12:06;;;;;;;0.13;0.13;;;;;;;-0.51;100.00;95406.94;5002345;28;20121;-74
2021/12/07 02:14:32;;;;;;;0.13;0.13;;;;;;;-0.44;100.00;95413.00;5003088;28;20038;-71
2021/12/07 02:17:03;;;;;;;0.32;0.20;;;;;;;-0.43;100.00;95406.72;4985856;28;20457;-72
2021/12/07 02:19:28;;;;;;;0.40;0.30;;;;;;;-0.38;100.00;95404.28;4983667;28;20049;-71
2021/12/07 02:21:56;;;;;;;0.35;0.20;;;;;;;-0.40;100.00;95408.91;5003563;28;20057;-71
2021/12/07 02:24:31;;;;;;;0.32;0.20;;;;;;;-0.37;100.00;95411.16;5000142;28;20042;-73
2021/12/07 02:26:57;;;;;;;0.30;0.20;;;;;;;-0.39;100.00;95415.81;5002984;28;20026;-71
2021/12/07 02:29:23;;;;;;;0.20;0.20;;;;;;;-0.38;100.00;95417.44;4983363;28;20045;-74
2021/12/07 02:31:51;;;;;;;0.20;0.20;;;;;;;-0.41;100.00;95423.09;4985780;28;20119;-73
2021/12/07 02:34:18;;;;;;;0.20;0.20;;;;;;;-0.54;100.00;95422.28;4984326;28;20030;-71
2021/12/07 02:36:44;;;;;;;0.10;0.10;;;;;;;-0.57;100.00;95429.56;4988138;28;20539;-71
2021/12/07 02:39:14;;;;;;;0.20;0.20;;;;;;;-0.64;100.00;95428.78;5000887;28;20041;-75
2021/12/07 02:41:41;;;;;;;0.47;0.25;;;;;;;-0.60;100.00;95421.31;4991178;28;20310;-71
2021/12/07 02:44:10;;;;;;;0.10;0.10;;;;;;;-0.61;100.00;95435.47;5001774;28;20041;-72
2021/12/07 02:46:38;;;;;;;0.43;0.20;;;;;;;-0.64;100.00;95436.66;5002510;28;20718;-71
2021/12/07 02:49:06;;;;;;;0.10;0.10;;;;;;;-0.63;100.00;95442.72;4984974;28;20115;-71
2021/12/07 02:51:33;;;;;;;0.20;0.20;;;;;;;-0.62;100.00;95432.03;4989843;28;20536;-71
2021/12/07 02:53:59;;;;;;;0.17;0.17;;;;;;;-0.67;100.00;95439.69;4986405;28;20034;-71
2021/12/07 02:56:26;;;;;;;0.20;0.20;;;;;;;-0.62;100.00;95439.09;4991000;28;20036;-72
2021/12/07 02:58:56;;;;;;;0.32;0.20;;;;;;;-0.62;100.00;95446.97;5003497;28;20232;-72
2021/12/07 03:01:27;;;;;;;0.10;0.10;;;;;;;-0.58;100.00;95453.44;5000525;28;20096;-72
2021/12/07 03:06:34;;;;;;;0.68;0.30;;;;;;;-0.53;100.00;95456.28;5000027;28;20480;-74
2021/12/07 03:28:08;;;;;;;0.93;0.45;;;;;;;-0.41;100.00;95485.38;5001254;28;20060;-72
2021/12/07 03:30:34;;;;;;;0.15;0.15;;;;;;;-0.44;100.00;95491.84;4985525;28;20041;-71
2021/12/07 03:33:02;;;;;;;0.55;0.28;;;;;;;-0.48;100.00;95487.19;5000129;28;20026;-72
2021/12/07 03:35:30;;;;;;;0.25;0.20;;;;;;;-0.46;100.00;95499.13;4979817;28;20419;-72
2021/12/07 03:37:57;;;;;;;14.60;1.50;;;;;;;-0.45;100.00;95510.44;4999480;28;20041;-72
2021/12/07 03:40:24;;;;;;;113.60;3.97;;;;;;;-0.44;100.00;95522.59;5000526;28;20059;-71
2021/12/07 03:42:50;;;;;;;54.55;1.52;;;;;;;-0.48;100.00;95530.03;4985252;28;20163;-71
2021/12/07 03:45:16;;;;;;;20.35;0.75;;;;;;;-0.48;100.00;95537.94;4985320;28;20026;-72
2021/12/07 03:47:42;;;;;;;57.97;1.35;;;;;;;-0.49;100.00;95538.13;4985654;28;20494;-71
2021/12/07 03:50:11;;;;;;;13.10;0.60;;;;;;;-0.53;100.00;95527.22;4990775;28;20076;-71
2021/12/07 03:52:37;;;;;;;16.08;0.52;;;;;;;-0.50;100.00;95542.59;4984003;28;20049;-71
2021/12/07 03:55:04;;;;;;;11.15;0.30;;;;;;;-0.47;100.00;95549.25;4984166;28;20033;-72
2021/12/07 03:57:30;;;;;;;9.70;0.40;;;;;;;-0.50;100.00;95553.09;4999840;28;21166;-71
2021/12/07 03:59:56;;;;;;;48.85;1.73;;;;;;;-0.47;100.00;95554.50;4999374;28;20041;-73
2021/12/07 04:02:22;;;;;;;147.10;3.95;;;;;;;-0.48;100.00;95564.22;4978038;28;20037;-71
2021/12/07 04:04:53;;;;;;;41.60;1.52;;;;;;;-0.48;100.00;95553.69;4985884;28;20041;-70
2021/12/07 04:07:19;;;;;;;25.40;1.38;;;;;;;-0.42;100.00;95570.50;4999484;28;20652;-71
2021/12/07 04:09:46;;;;;;;5.82;0.47;;;;;;;-0.43;100.00;95568.88;5000849;28;20052;-71
2021/12/07 04:12:12;;;;;;;41.78;1.20;;;;;;;-0.44;100.00;95569.91;5001053;28;20602;-74
2021/12/07 04:14:38;;;;;;;4.50;0.30;;;;;;;-0.47;100.00;95578.97;5000126;28;20034;-72
2021/12/07 04:17:03;;;;;;;35.15;1.60;;;;;;;-0.46;100.00;95588.50;4982609;28;20038;-71
2021/12/07 04:19:29;;;;;;;4.07;0.50;;;;;;;-0.47;100.00;95594.75;4986383;28;20034;-71
2021/12/07 04:21:55;;;;;;;51.72;2.30;;;;;;;-0.45;100.00;95594.56;5000505;28;20034;-72
2021/12/07 04:24:20;;;;;;;111.47;3.13;;;;;;;-0.44;100.00;95594.38;4984745;28;20080;-74
2021/12/07 04:26:46;;;;;;;26.48;1.30;;;;;;;-0.40;100.00;95594.75;5002262;28;20485;-72
2021/12/07 04:29:11;;;;;;;11.52;0.80;;;;;;;-0.38;100.00;95601.44;4998926;28;20053;-70
2021/12/07 04:31:37;;;;;;;4.45;0.80;;;;;;;-0.37;100.00;95607.53;5001409;28;20040;-71
2021/12/07 04:34:12;;;;;;;1.67;0.55;;;;;;;-0.38;100.00;95603.28;5001439;28;20108;-73
2021/12/07 04:36:38;;;;;;;8.70;0.57;;;;;;;-0.38;100.00;95621.69;5002654;28;20042;-72
2021/12/07 04:39:03;;;;;;;0.68;0.35;;;;;;;-0.39;100.00;95620.03;5002171;28;20045;-74
2021/12/07 04:41:32;;;;;;;2.17;0.70;;;;;;;-0.39;100.00;95620.03;5003305;28;20350;-71
2021/12/07 04:43:58;;;;;;;58.10;1.67;;;;;;;-0.40;100.00;95616.59;5000836;28;20045;-73
2021/12/07 04:46:34;;;;;;;19.08;1.25;;;;;;;-0.40;100.00;95619.22;5000381;28;20050;-72
2021/12/07 04:49:23;;;;;;;1.83;0.60;;;;;;;-0.39;100.00;95626.13;5000747;28;20408;-71
2021/12/07 04:57:47;;;;;;;23.02;1.30;;;;;;;-0.34;100.00;95633.41;4998170;28;20684;-70
2021/12/07 05:00:26;;;;;;;56.20;1.85;;;;;;;-0.32;100.00;95640.06;5003626;28;20035;-71
2021/12/07 05:03:03;;;;;;;16.52;1.20;;;;;;;-0.35;100.00;95635.22;4988303;28;20489;-70
2021/12/07 05:05:34;;;;;;;34.78;1.85;;;;;;;-0.33;100.00;95638.44;5005054;28;20113;-73
2021/12/07 05:08:03;;;;;;;;;;;;;;;-0.33;100.00;95646.34;5005012;28;20141;-71
2021/12/07 05:10:32;;;;;;;37.45;2.15;;;;;;;-0.39;100.00;95634.00;5005621;28;20364;-72
2021/12/07 05:39:47;;;;;;;3.05;1.85;;;;;;;-0.17;100.00;95694.28;5004246;28;20049;-71
2021/12/07 05:42:13;;;;;;;5.78;2.25;;;;;;;-0.16;100.00;95694.09;5004787;28;20034;-71
2021/12/07 05:44:38;;;;;;;8.98;4.32;;;;;;;-0.17;100.00;95686.41;5004061;28;20034;-71
2021/12/07 05:47:05;;;;;;;21.00;5.75;;;;;;;-0.13;100.00;95698.97;5002507;28;20042;-72
2021/12/07 05:49:31;;;;;;;14.35;4.80;;;;;;;-0.11;100.00;95704.03;5004832;28;20361;-71
2021/12/07 05:51:57;;;;;;;10.48;3.40;;;;;;;-0.05;100.00;95704.03;5001640;28;20120;-71
2021/12/07 05:54:23;;;;;;;5.03;2.80;;;;;;;-0.09;100.00;95700.19;5003221;28;20037;-73
2021/12/07 05:56:48;;;;;;;7.80;3.58;;;;;;;-0.04;100.00;95723.25;5005324;28;20531;-71
2021/12/07 05:59:14;;;;;;;15.38;6.00;;;;;;;-0.03;100.00;95733.56;5002087;28;20105;-71
2021/12/07 06:01:40;;;;;;;13.68;5.57;;;;;;;0.01;100.00;95734.00;5004091;28;20480;-72
2021/12/07 06:04:05;;;;;;;12.00;4.60;;;;;;;0.02;100.00;95742.69;5004183;28;20161;-72
2021/12/07 06:06:31;;;;;;;10.32;5.20;;;;;;;0.02;100.00;95726.91;5002729;28;20394;-73
2021/12/07 06:08:56;;;;;;;26.90;7.93;;;;;;;0.07;100.00;95732.38;5005171;28;20037;-73
2021/12/07 06:11:24;;;;;;;13.63;4.03;;;;;;;0.06;100.00;95739.44;5004424;28;20030;-72
2021/12/07 06:13:50;;;;;;;13.63;4.00;;;;;;;0.11;100.00;95738.88;5004764;28;20406;-71
2021/12/07 06:16:16;;;;;;;20.25;4.13;;;;;;;0.12;100.00;95754.44;5003329;28;20030;-71
2021/12/07 06:18:43;;;;;;;15.63;6.55;;;;;;;0.09;100.00;95748.78;5004948;28;20388;-74
2021/12/07 06:21:10;;;;;;;24.60;5.28;;;;;;;0.15;100.00;95771.66;5002717;28;20080;-71
2021/12/07 06:23:36;;;;;;;13.88;6.97;;;;;;;0.16;100.00;95771.47;5009593;28;20045;-72
2021/12/07 06:26:03;;;;;;;20.95;7.18;;;;;;;0.18;100.00;95772.06;5003596;28;20259;-71
2021/12/07 06:28:29;;;;;;;14.75;5.22;;;;;;;0.19;100.00;95780.78;5003662;28;20076;-72
2021/12/07 06:30:54;;;;;;;9.65;4.38;;;;;;;0.21;100.00;95778.75;5002801;28;20064;-72
2021/12/07 06:33:22;;;;;;;18.08;5.43;;;;;;;0.21;100.00;95784.81;5003072;28;20034;-71
2021/12/07 06:35:49;;;;;;;10.25;4.38;;;;;;;0.22;100.00;95785.63;5003925;28;20045;-71
2021/12/07 06:38:18;;;;;;;15.52;4.32;;;;;;;0.25;100.00;95793.94;5002759;28;20053;-75
2021/12/07 06:40:44;;;;;;;13.95;3.67;;;;;;;0.24;100.00;95808.13;5003830;28;20044;-72
2021/12/07 06:43:11;;;;;;;2.65;1.77;;;;;;;0.27;100.00;95804.28;5002375;28;20048;-70
2021/12/07 06:45:36;;;;;;;15.68;5.43;;;;;;;0.28;100.00;95817.22;5000559;28;20042;-70
2021/12/07 06:48:03;;;;;;;15.23;4.32;;;;;;;0.31;100.00;95809.94;5001100;28;20081;-73
2021/12/07 06:50:28;;;;;;;14.45;3.80;;;;;;;0.27;100.00;95810.34;4999547;28;20409;-70
2021/12/07 06:52:54;;;;;;;16.48;3.92;;;;;;;0.28;100.00;95804.06;5003584;28;20077;-72
2021/12/07 06:55:20;;;;;;;17.35;3.92;;;;;;;0.34;100.00;95806.91;5004065;28;20188;-71
2021/12/07 06:57:46;;;;;;;23.35;5.63;;;;;;;0.37;100.00;95806.50;5004163;28;20049;-71
2021/12/07 07:00:14;;;;;;;31.05;3.83;;;;;;;0.36;99.70;95803.06;5002402;28;21017;-71
2021/12/07 07:02:39;;;;;;;17.17;4.03;;;;;;;0.38;100.00;95816.00;5001145;28;20048;-72
2021/12/07 07:05:06;;;;;;;8.10;3.30;;;;;;;0.38;99.52;95808.13;5001138;28;20037;-70
2021/12/07 07:07:33;;;;;;;6.60;2.88;;;;;;;0.39;99.37;95809.75;5000768;28;20034;-69
2021/12/07 07:09:59;;;;;;;6.45;2.53;;;;;;;0.41;99.66;95823.53;5002319;28;20125;-70
2021/12/07 07:12:25;;;;;;;11.23;2.80;;;;;;;0.43;99.53;95834.66;5004037;28;20042;-70
2021/12/07 07:14:50;;;;;;;8.18;2.90;;;;;;;0.44;99.17;95831.03;5003538;28;20041;-69
2021/12/07 07:17:16;;;;;;;22.15;4.82;;;;;;;0.48;99.74;95843.59;5002336;28;20466;-73
2021/12/07 07:19:41;;;;;;;18.45;4.90;;;;;;;0.47;99.46;95856.97;5003357;28;20029;-71
2021/12/07 07:22:07;;;;;;;10.35;3.40;;;;;;;0.50;98.78;95846.81;5003885;28;20396;-69
2021/12/07 07:24:33;;;;;;;20.20;5.80;;;;;;;0.54;99.07;95857.75;5002300;28;20482;-73
2021/12/07 07:27:00;;;;;;;9.40;4.47;;;;;;;0.57;99.24;95873.19;5000577;28;20037;-71
2021/12/07 07:29:26;;;;;;;11.10;4.07;;;;;;;0.56;98.60;95868.91;5002364;28;20060;-72
2021/12/07 07:31:52;;;;;;;21.98;4.53;;;;;;;0.59;98.81;95878.22;5003630;28;20038;-70
2021/12/07 07:34:18;;;;;;;17.65;4.53;;;;;;;0.61;98.48;95869.13;5001625;28;20038;-71
2021/12/07 07:36:44;;;;;;;14.20;2.95;;;;;;;0.62;97.86;95868.09;5003313;28;20567;-70
2021/12/07 07:39:10;;;;;;;40.72;4.97;;;;;;;0.66;98.02;95884.31;5002658;28;20426;-71
2021/12/07 07:41:36;;;;;;;10.75;3.17;;;;;;;0.69;98.22;95886.53;5003929;28;20352;-70
2021/12/07 07:44:02;;;;;;;13.38;4.28;;;;;;;0.70;97.60;95881.09;5002690;28;20045;-71
2021/12/07 07:46:38;;;;;;;25.15;5.13;;;;;;;0.77;97.03;95878.44;5001059;28;20045;-72
2021/12/07 07:49:04;;;;;;;19.45;5.05;;;;;;;0.83;97.10;95881.09;5002290;28;20041;-70
2021/12/07 07:51:34;;;;;;;21.75;4.75;;;;;;;0.86;96.99;95881.69;5001567;28;20484;-73
2021/12/07 07:54:00;;;;;;;7.70;2.80;;;;;;;0.90;96.59;95882.94;5002463;28;20045;-71
2021/12/07 07:56:27;;;;;;;21.13;4.82;;;;;;;0.95;96.10;95880.50;5003246;28;20172;-70
2021/12/07 07:58:54;;;;;;;16.35;4.70;;;;;;;0.98;96.39;95882.72;5003204;28;20377;-73
2021/12/07 08:01:20;;;;;;;18.20;5.60;;;;;;;1.02;95.49;95890.03;5002161;28;20417;-71
2021/12/07 08:03:46;;;;;;;13.80;4.10;;;;;;;1.07;95.70;95897.31;5003351;28;20034;-70
2021/12/07 08:06:11;;;;;;;20.05;4.75;;;;;;;1.11;94.81;95890.66;5003849;28;20104;-71
2021/12/07 08:08:37;;;;;;;15.15;4.22;;;;;;;1.13;94.67;95909.69;5003460;28;20481;-71
2021/12/07 08:11:02;;;;;;;34.13;6.28;;;;;;;1.14;95.22;95919.22;5003345;28;20428;-71
2021/12/07 08:13:30;;;;;;;23.80;5.57;;;;;;;1.13;94.29;95908.88;5003421;28;20038;-70
2021/12/07 08:15:56;;;;;;;11.63;3.95;;;;;;;1.11;94.83;95909.09;5001552;28;20038;-71
2021/12/07 08:18:23;;;;;;;8.43;2.92;;;;;;;1.09;94.51;95916.41;4969782;28;20554;-74
2021/12/07 08:20:49;;;;;;;27.65;4.20;;;;;;;1.15;94.25;95918.19;5003976;28;20034;-71
2021/12/07 08:23:14;;;;;;;22.65;3.05;;;;;;;1.18;94.13;95909.09;5003751;28;20468;-70
2021/12/07 08:25:44;;;;;;;8.65;2.85;;;;;;;1.22;93.96;95915.56;5002869;28;20109;-70
2021/12/07 08:28:13;;;;;;;23.40;4.50;;;;;;;1.27;93.79;95919.22;5002863;28;20038;-71
2021/12/07 08:30:40;;;;;;;22.23;5.05;;;;;;;1.33;93.32;95921.06;5007700;28;20046;-70
2021/12/07 08:33:08;;;;;;;13.30;3.58;;;;;;;1.42;93.03;95912.94;5005716;28;20469;-71
2021/12/07 08:35:34;;;;;;;18.90;3.13;;;;;;;1.50;92.22;95910.91;5007474;28;20108;-70
2021/12/07 08:38:00;;;;;;;24.15;4.43;;;;;;;1.64;91.99;95911.69;5004338;28;20038;-71
2021/12/07 08:40:28;;;;;;;17.00;3.50;;;;;;;1.53;91.19;95914.94;5008004;28;20136;-71
2021/12/07 08:42:55;;;;;;;17.83;3.70;;;;;;;1.48;91.36;95914.75;5005291;28;20129;-72
2021/12/07 08:45:22;;;;;;;9.05;3.03;;;;;;;1.63;90.86;95925.88;5006842;28;20040;-70
2021/12/07 08:47:48;;;;;;;17.17;3.08;;;;;;;1.74;90.86;95917.34;5004776;28;20690;-73
2021/12/07 08:50:18;;;;;;;23.17;4.10;;;;;;;1.85;90.36;95919.34;5003897;28;20124;-70
2021/12/07 08:52:49;;;;;;;9.30;3.15;;;;;;;2.00;89.25;95929.66;5005438;28;20033;-73
2021/12/07 09:00:31;;;;;;;13.60;3.17;;;;;;;1.95;88.83;95925.03;5005088;28;20034;-72
2021/12/07 09:02:56;;;;;;;12.70;3.22;;;;;;;2.13;88.21;95931.47;5004942;28;20282;-70
2021/12/07 09:05:23;;;;;;;18.52;3.83;;;;;;;2.16;87.73;95938.94;5005651;28;20067;-72
2021/12/07 09:07:50;;;;;;;12.60;3.13;;;;;;;2.18;87.31;95936.94;5003688;28;20049;-70
2021/12/07 09:10:16;;;;;;;7.90;2.17;;;;;;;2.18;87.04;95929.03;5006340;28;20116;-72
2021/12/07 09:12:41;;;;;;;12.20;3.33;;;;;;;2.29;86.99;95916.97;5005006;28;20465;-71
2021/12/07 09:15:10;;;;;;;14.40;3.08;;;;;;;2.26;86.70;95930.59;5005031;28;20046;-71
2021/12/07 09:17:36;;;;;;;16.20;3.35;;;;;;;2.31;86.41;95938.69;5005499;28;20033;-70
2021/12/07 09:20:05;;;;;;;6.20;1.80;;;;;;;2.21;86.19;95944.44;5005102;28;20117;-71
2021/12/07 09:22:31;;;;;;;14.35;3.90;;;;;;;2.26;86.63;95941.16;5004662;28;20427;-72
2021/12/07 09:24:56;;;;;;;14.45;4.30;;;;;;;2.33;85.92;95937.47;5004411;28;20301;-74
2021/12/07 09:27:22;;;;;;;11.68;3.10;;;;;;;2.38;85.20;95942.13;4988716;28;20041;-73
2021/12/07 09:29:48;;;;;;;8.43;3.03;;;;;;;2.39;85.43;95946.38;5006118;28;20449;-71
2021/12/07 09:32:13;;;;;;;9.27;3.03;;;;;;;2.30;84.57;95947.66;5004870;28;20628;-71
2021/12/07 09:34:39;;;;;;;8.85;3.00;;;;;;;2.26;85.44;95957.84;5006109;28;20029;-70
2021/12/07 09:37:04;;;;;;;16.10;3.63;;;;;;;2.41;85.00;95955.75;5003904;28;20069;-72
2021/12/07 09:39:30;;;;;;;9.50;2.85;;;;;;;2.52;84.42;95959.53;5006412;28;20436;-71
2021/12/07 09:41:55;;;;;;;14.40;4.47;;;;;;;2.43;84.15;95958.16;5003751;28;20026;-70
2021/12/07 09:44:22;;;;;;;10.57;4.18;;;;;;;2.20;84.75;95974.50;5005944;28;20041;-72
2021/12/07 09:46:48;;;;;;;9.77;3.80;;;;;;;2.38;84.53;95961.41;5004282;28;20052;-70
2021/12/07 09:49:13;;;;;;;10.90;4.15;;;;;;;2.10;84.85;95974.09;5004720;28;20117;-70
2021/12/07 09:51:39;;;;;;;10.85;3.28;;;;;;;2.20;84.93;95974.50;5004358;28;20042;-71
2021/12/07 09:54:08;;;;;;;12.40;2.90;;;;;;;2.04;85.29;95969.66;5003167;28;20484;-70
2021/12/07 09:56:34;;;;;;;15.88;5.18;;;;;;;2.14;85.16;95977.97;5005241;28;20029;-70
2021/12/07 09:59:00;;;;;;;20.27;5.10;;;;;;;2.17;85.03;95967.78;5002748;28;20070;-69
2021/12/07 10:01:28;;;;;;;14.60;4.55;;;;;;;2.17;84.91;95974.88;5004380;28;20046;-69
2021/12/07 10:03:54;;;;;;;14.77;5.65;;;;;;;2.04;85.63;95972.31;5003238;28;20033;-70
2021/12/07 10:06:20;;;;;;;12.00;3.25;;;;;;;2.28;84.53;95982.19;5003134;28;20042;-72
2021/12/07 10:08:47;;;;;;;5.68;2.63;;;;;;;2.13;84.09;95976.34;5004415;28;20040;-69
2021/12/07 10:11:12;;;;;;;17.40;3.55;;;;;;;1.86;84.90;95970.28;5003809;28;20037;-69
2021/12/07 10:13:41;;;;;;;18.20;5.63;;;;;;;2.19;84.50;95973.69;5004680;28;20196;-69
2021/12/07 10:16:10;;;;;;;9.07;2.65;;;;;;;2.37;83.96;95970.38;5001710;28;20049;-69
2021/12/07 10:18:37;;;;;;;17.55;5.53;;;;;;;2.47;83.68;95981.28;5004160;28;20026;-72
2021/12/07 10:21:09;;;;;;;26.75;3.88;;;;;;;2.59;83.02;95983.31;4983905;28;20080;-70
2021/12/07 10:23:49;;;;;;;12.93;3.33;;;;;;;2.51;82.84;95977.22;4987045;28;20030;-69
2021/12/07 10:26:18;;;;;;;13.15;3.45;;;;;;;2.48;82.53;95974.19;5001346;28;20095;-70
2021/12/07 10:28:59;;;;;;;14.43;3.00;;;;;;;2.28;83.60;95963.72;5001077;28;20095;-69
2021/12/07 10:31:43;;;;;;;13.82;3.92;;;;;;;2.74;82.42;95970.63;5001587;28;20354;-70
2021/12/07 10:34:16;;;;;;;9.68;2.70;;;;;;;2.51;82.12;95957.94;4995128;28;20414;-71
2021/12/07 10:36:55;;;;;;;10.63;3.47;;;;;;;2.13;83.67;95952.59;4997080;28;20041;-71
2021/12/07 10:39:33;;;;;;;8.63;2.47;;;;;;;1.91;84.91;95952.84;5000424;28;20041;-69
2021/12/07 10:42:12;;;;;;;8.65;2.50;;;;;;;1.97;85.42;95945.13;5000029;28;20268;-69
2021/12/07 10:44:40;;;;;;;5.63;2.33;;;;;;;2.02;84.32;95966.41;5001198;28;20046;-70
2021/12/07 10:47:09;;;;;;;10.10;2.72;;;;;;;2.42;83.73;95962.66;5000698;28;20052;-69
2021/12/07 10:49:58;;;;;;;7.05;1.85;;;;;;;2.51;82.45;95952.66;5003537;28;20041;-70
2021/12/07 10:52:33;;;;;;;7.35;2.60;;;;;;;2.80;82.14;95953.91;5001086;28;20513;-72
2021/12/07 10:55:04;;;;;;;12.30;2.45;;;;;;;2.97;80.99;95939.19;5001605;28;20140;-70
2021/12/07 10:57:42;;;;;;;17.58;6.25;;;;;;;4.77;77.38;95930.31;5004277;28;20611;-69
2021/12/07 11:00:23;;;;;;;6.45;2.20;;;;;;;5.10;69.87;95924.53;5001308;28;20042;-70
2021/12/07 11:03:11;;;;;;;10.80;3.55;;;;;;;4.57;73.11;95931.34;5002402;28;20038;-69
2021/12/07 11:05:53;;;;;;;11.25;3.95;;;;;;;4.21;74.25;95944.66;5004701;28;20105;-70
2021/12/07 11:08:26;;;;;;;7.95;2.40;;;;;;;3.70;77.25;95943.91;5003045;28;20038;-69
2021/12/07 11:10:52;;;;;;;13.73;3.60;;;;;;;3.61;77.08;95939.94;5003655;28;20080;-71
2021/12/07 11:13:24;;;;;;;10.07;3.88;;;;;;;4.24;77.11;95938.88;5001675;28;20384;-71
2021/12/07 11:15:55;;;;;;;6.32;2.38;;;;;;;4.57;73.29;95936.66;5004116;28;20101;-69
2021/12/07 11:18:25;;;;;;;12.57;3.28;;;;;;;4.61;74.08;95923.78;5002920;28;20038;-69
2021/12/07 11:20:53;;;;;;;13.25;3.03;;;;;;;5.07;71.74;95927.63;5001867;28;20393;-69
2021/12/07 11:23:29;;;;;;;10.00;3.50;;;;;;;5.06;70.36;95926.00;5002931;28;20036;-70
2021/12/07 11:31:37;;;;;;;11.38;4.20;;;;;;;10.65;53.40;95912.25;5001092;28;20080;-74
2021/12/07 11:34:23;;;;;;;9.10;2.05;;;;;;;8.46;54.77;95921.09;4999355;28;20069;-70
2021/12/07 11:36:52;;;;;;;7.15;2.42;;;;;;;6.46;62.98;95920.75;5003137;28;20124;-70
2021/12/07 11:39:48;;;;;;;13.02;2.05;;;;;;;7.80;60.69;95910.34;5003348;28;20032;-72
2021/12/07 11:42:27;;;;;;;10.20;2.38;;;;;;;11.07;52.60;95914.00;4994525;28;20078;-70
2021/12/07 11:44:56;;;;;;;8.82;2.15;;;;;;;13.19;45.10;95907.72;5000984;28;20384;-74
2021/12/07 11:47:25;;;;;;;10.98;2.67;;;;;;;12.37;42.54;95899.22;5002084;28;20053;-73
2021/12/07 11:49:51;;;;;;;8.85;2.28;;;;;;;8.08;54.44;95903.25;5001924;28;20319;-70
2021/12/07 11:52:16;;;;;;;13.18;2.80;;;;;;;6.70;59.48;95910.88;5001143;28;20037;-69
2021/12/07 11:54:43;;;;;;;8.65;3.05;;;;;;;7.35;62.06;95912.28;5003357;28;20092;-69
2021/12/07 11:57:12;;;;;;;12.35;3.80;;;;;;;6.59;62.61;95907.19;5002562;28;20038;-70
2021/12/07 11:59:39;;;;;;;8.25;2.72;;;;;;;5.70;64.12;95906.63;5001813;28;20045;-72
2021/12/07 12:02:05;;;;;;;9.73;2.30;;;;;;;4.78;67.53;95913.34;5000234;28;20046;-69
2021/12/07 12:04:31;;;;;;;5.60;1.85;;;;;;;4.37;69.73;95902.47;5007015;28;20396;-71
2021/12/07 12:06:58;;;;;;;11.18;2.35;;;;;;;4.92;68.93;95897.03;5005334;28;20065;-72
2021/12/07 12:09:26;;;;;;;7.75;2.35;;;;;;;4.48;69.43;95900.91;5007409;28;20030;-71
2021/12/07 12:12:17;;;;;;;9.85;1.95;;;;;;;3.72;71.90;95894.22;5006799;28;20030;-70
2021/12/07 12:15:01;;;;;;;10.85;2.55;;;;;;;4.96;70.23;95878.81;5007286;28;20038;-70
2021/12/07 12:17:51;;;;;;;12.32;2.95;;;;;;;9.30;59.22;95869.16;5007030;28;20077;-71
2021/12/07 12:20:31;;;;;;;9.90;2.58;;;;;;;8.32;56.68;95861.19;5005875;28;20061;-70
2021/12/07 12:23:12;;;;;;;14.55;2.55;;;;;;;7.78;59.00;95861.84;5007574;28;20080;-70
2021/12/07 12:25:37;;;;;;;12.13;2.67;;;;;;;11.27;52.86;95854.28;5006574;28;20270;-70
2021/12/07 12:28:04;;;;;;;13.43;3.75;;;;;;;12.58;47.24;95851.66;5006072;28;20424;-71
2021/12/07 12:30:37;;;;;;;7.43;3.78;;;;;;;13.59;41.57;95842.97;5007047;28;20119;-70
2021/12/07 12:33:12;;;;;;;11.93;3.53;;;;;;;15.53;41.09;95848.69;5006467;28;20046;-70
2021/12/07 12:35:42;;;;;;;11.60;3.78;;;;;;;17.01;37.89;95852.16;4982399;28;20038;-71
2021/12/07 12:38:16;;;;;;;9.38;2.00;;;;;;;13.10;41.28;95853.81;5004567;28;20076;-72
2021/12/07 12:40:42;;;;;;;7.90;1.83;;;;;;;10.28;46.86;95859.69;5005501;28;20046;-71
2021/12/07 12:43:07;;;;;;;9.45;2.35;;;;;;;8.46;54.75;95856.31;5005124;28;20026;-70
2021/12/07 12:45:37;;;;;;;9.38;2.65;;;;;;;6.89;57.74;95863.59;5007593;28;20434;-69
2021/12/07 12:48:07;;;;;;;10.40;1.98;;;;;;;5.77;61.10;95854.22;5005057;28;20042;-70
2021/12/07 12:50:43;;;;;;;7.70;1.83;;;;;;;4.98;63.29;95852.88;5007038;28;20347;-70
2021/12/07 12:53:12;;;;;;;12.50;2.28;;;;;;;5.50;63.53;95843.25;4981731;28;20069;-71
2021/12/07 12:55:48;;;;;;;10.63;2.85;;;;;;;5.40;64.72;95847.53;5004568;28;20038;-71
2021/12/07 12:58:34;;;;;;;8.40;2.67;;;;;;;4.99;64.85;95851.88;5002735;28;20320;-72
2021/12/07 13:01:14;;;;;;;22.55;12.15;;;;;;;4.33;67.65;95842.19;5003161;28;20054;-70
2021/12/07 13:03:45;;;;;;;10.32;4.47;;;;;;;3.98;68.82;95850.78;5004512;28;20049;-71
2021/12/07 13:06:14;;;;;;;9.70;3.40;;;;;;;3.89;69.63;95841.50;5003229;28;20479;-72
2021/12/07 13:08:58;;;;;;;9.32;2.28;;;;;;;3.77;70.05;95838.00;5005874;28;20270;-70
2021/12/07 13:11:40;;;;;;;9.45;2.20;;;;;;;3.56;70.84;95839.22;5005731;28;20041;-70
2021/12/07 13:14:24;;;;;;;11.90;2.00;;;;;;;3.23;71.99;95832.41;5004082;28;20034;-71
2021/12/07 13:17:33;;;;;;;11.60;2.00;;;;;;;3.13;73.11;95841.88;5005988;28;20520;-73
2021/12/07 13:20:30;;;;;;;9.98;3.38;;;;;;;3.15;72.37;95839.81;4924659;29;20040;-70
2021/12/07 13:23:13;;;;;;;11.07;3.03;;;;;;;2.87;73.42;95837.59;4919800;29;20055;-72